createdAt,value
2018-12-12T06:28:47.309Z,84.48
2018-12-12T06:29:47.281Z,85.21
2018-12-12T06:30:47.270Z,85.21
2018-12-12T06:31:47.279Z,85.04
2018-12-12T06:32:47.249Z,85.31
2018-12-12T06:33:47.238Z,85.21
2018-12-12T06:34:47.233Z,85.42
2018-12-12T06:35:47.227Z,84.75
2018-12-12T06:36:47.264Z,84.28
2018-12-12T06:37:47.194Z,84.75
2018-12-12T06:38:47.198Z,84.44
2018-12-12T06:39:47.189Z,84.13
2018-12-12T06:40:47.165Z,84.13
2018-12-12T06:41:47.173Z,84.44
2018-12-12T06:42:47.145Z,84.13
2018-12-12T06:43:47.132Z,84.13
2018-12-12T06:44:47.137Z,83.78
2018-12-12T06:45:47.116Z,83.68
2018-12-12T06:46:47.128Z,84.03
2018-12-12T06:47:47.092Z,83.37
2018-12-12T06:48:47.080Z,83.06
2018-12-12T06:49:47.082Z,83.26
2018-12-12T06:50:47.065Z,82.65
2018-12-12T06:51:47.066Z,82.75
2018-12-12T06:52:47.039Z,82.65
2018-12-12T06:53:47.031Z,82.65
2018-12-12T06:54:47.016Z,82.65
2018-12-12T06:55:47.007Z,82.65
2018-12-12T06:56:47.014Z,83.26
2018-12-12T06:57:47.001Z,82.86
2018-12-12T06:58:46.984Z,82.75
2018-12-12T06:59:46.966Z,82.86
2018-12-12T07:00:46.953Z,83.06
2018-12-12T07:01:46.966Z,82.86
2018-12-12T07:02:46.942Z,82.65
2018-12-12T07:03:46.929Z,83.06
2018-12-12T07:04:46.910Z,82.65
2018-12-12T07:05:46.904Z,83.26
2018-12-12T07:06:53.974Z,83.16
2018-12-12T07:07:46.880Z,83.16
2018-12-12T07:08:46.868Z,83.06
2018-12-12T07:09:46.858Z,83.06
2018-12-12T07:10:46.848Z,83.26
2018-12-12T07:11:46.854Z,83.58
2018-12-12T07:12:46.826Z,83.78
2018-12-12T07:13:46.820Z,84.13
2018-12-12T07:14:46.884Z,84.23
2018-12-12T07:15:46.798Z,84.23
2018-12-12T07:16:46.817Z,84.34
2018-12-12T07:17:46.776Z,84.13
2018-12-12T07:18:46.775Z,84.86
2018-12-12T07:19:46.755Z,84.13
2018-12-12T07:20:46.744Z,84.75
2018-12-12T07:21:46.798Z,85.38
2018-12-12T07:22:46.724Z,84.44
2018-12-12T07:23:46.711Z,84.65
2018-12-12T07:24:46.707Z,84.44
2018-12-12T07:25:46.692Z,84.65
2018-12-12T07:26:46.737Z,84.86
2018-12-12T07:27:46.690Z,84.23
2018-12-12T07:28:46.663Z,84.23
2018-12-12T07:29:46.695Z,84.44
2018-12-12T07:30:46.641Z,83.93
2018-12-12T07:31:46.652Z,84.44
2018-12-12T07:32:46.621Z,84.44
2018-12-12T07:33:46.610Z,84.34
2018-12-12T07:34:46.598Z,84.23
2018-12-12T07:35:46.644Z,84.28
2018-12-12T07:36:46.670Z,83.86
2018-12-12T07:37:46.566Z,85.31
2018-12-12T07:38:46.558Z,85.52
2018-12-12T07:39:46.545Z,85.35
2018-12-12T07:40:46.535Z,85.21
2018-12-12T07:41:46.550Z,84.83
2018-12-12T07:42:46.517Z,85.42
2018-12-12T07:43:46.517Z,84.48
2018-12-12T07:44:46.530Z,84.17
2018-12-12T07:45:46.488Z,84.52
2018-12-12T07:46:46.492Z,84.31
2018-12-12T07:47:46.499Z,84.42
2018-12-12T07:48:46.454Z,85.46
2018-12-12T07:49:46.448Z,84.94
2018-12-12T07:50:46.442Z,84.52
2018-12-12T07:51:46.471Z,84.73
2018-12-12T07:52:46.440Z,84.31
2018-12-12T07:53:46.400Z,84.63
2018-12-12T07:54:46.454Z,84.94
2018-12-12T07:55:47.174Z,84.11
2018-12-12T07:56:46.397Z,84.52
2018-12-12T07:57:46.359Z,84.21
2018-12-12T07:58:46.385Z,83.90
2018-12-12T07:59:46.355Z,83.17
2018-12-12T08:00:46.326Z,84.00
2018-12-12T08:01:46.341Z,84.42
2018-12-12T08:02:46.324Z,84.42
2018-12-12T08:03:46.292Z,84.42
2018-12-12T08:04:46.291Z,84.31
2018-12-12T08:05:46.278Z,84.31
2018-12-12T08:06:46.279Z,83.90
2018-12-12T08:07:46.262Z,84.31
2018-12-12T08:08:46.251Z,83.38
2018-12-12T08:09:46.231Z,83.17
2018-12-12T08:10:46.220Z,83.38
2018-12-12T08:11:46.230Z,83.38
2018-12-12T08:12:46.204Z,83.07
2018-12-12T08:13:46.188Z,82.82
2018-12-12T08:14:46.206Z,82.93
2018-12-12T08:15:46.165Z,83.14
2018-12-12T08:16:46.172Z,82.82
2018-12-12T08:17:46.145Z,82.72
2018-12-12T08:18:46.138Z,83.14
2018-12-12T08:19:46.127Z,82.72
2018-12-12T08:20:46.118Z,83.34
2018-12-12T08:21:46.135Z,82.03
2018-12-12T08:22:46.098Z,83.17
2018-12-12T08:23:46.084Z,83.38
2018-12-12T08:24:46.080Z,84.00
2018-12-12T08:25:46.063Z,84.56
2018-12-12T08:26:46.055Z,84.42
2018-12-12T08:27:46.074Z,84.36
2018-12-12T08:28:46.068Z,83.90
2018-12-12T08:29:46.023Z,83.94
2018-12-12T08:30:46.011Z,84.52
2018-12-12T08:31:46.007Z,84.21
2018-12-12T08:32:46.012Z,83.07
2018-12-12T08:33:45.998Z,83.38
2018-12-12T08:34:45.967Z,82.65
2018-12-12T08:35:45.954Z,83.17
2018-12-12T08:36:45.956Z,84.00
2018-12-12T08:37:45.955Z,83.38
2018-12-12T08:38:45.925Z,82.97
2018-12-12T08:39:45.913Z,82.97
2018-12-12T08:40:45.943Z,83.17
2018-12-12T08:41:45.895Z,82.97
2018-12-12T08:42:45.922Z,82.86
2018-12-12T08:43:45.896Z,82.86
2018-12-12T08:44:45.872Z,82.86
2018-12-12T08:45:45.851Z,82.34
2018-12-12T08:46:45.840Z,82.10
2018-12-12T08:47:45.848Z,82.20
2018-12-12T08:48:45.828Z,81.99
2018-12-12T08:49:45.809Z,81.27
2018-12-12T08:50:45.799Z,81.44
2018-12-12T08:51:45.789Z,81.75
2018-12-12T08:52:45.804Z,81.23
2018-12-12T08:53:45.766Z,81.44
2018-12-12T08:54:45.788Z,81.23
2018-12-12T08:55:45.778Z,81.13
2018-12-12T08:56:45.746Z,80.71
2018-12-12T08:57:45.750Z,81.02
2018-12-12T08:58:45.808Z,80.99
2018-12-12T08:59:45.701Z,81.09
2018-12-12T09:00:45.694Z,81.09
2018-12-12T09:01:45.682Z,81.09
2018-12-12T09:02:45.690Z,80.88
2018-12-12T09:03:45.661Z,81.09
2018-12-12T09:04:45.660Z,80.47
2018-12-12T09:05:45.641Z,81.40
2018-12-12T09:06:45.633Z,81.51
2018-12-12T09:07:45.646Z,80.57
2018-12-12T09:08:45.612Z,81.92
2018-12-12T09:09:45.661Z,82.03
2018-12-12T09:10:45.591Z,81.92
2018-12-12T09:11:45.577Z,81.30
2018-12-12T09:12:45.591Z,80.99
2018-12-12T09:13:45.557Z,80.68
2018-12-12T09:14:45.550Z,80.16
2018-12-12T09:15:45.542Z,80.05
2018-12-12T09:16:45.529Z,79.85
2018-12-12T09:17:45.535Z,80.68
2018-12-12T09:18:45.519Z,80.99
2018-12-12T09:19:45.497Z,80.57
2018-12-12T09:20:45.484Z,80.54
2018-12-12T09:21:45.483Z,80.68
2018-12-12T09:22:45.486Z,80.74
2018-12-12T09:23:45.454Z,80.33
2018-12-12T09:24:45.444Z,78.99
2018-12-12T09:25:45.432Z,78.99
2018-12-12T09:26:45.425Z,78.67
2018-12-12T09:27:46.373Z,78.88
2018-12-12T09:28:45.402Z,78.67
2018-12-12T09:29:45.390Z,79.60
2018-12-12T09:30:45.394Z,79.64
2018-12-12T09:31:45.372Z,80.12
2018-12-12T09:32:45.407Z,79.30
2018-12-12T09:33:45.363Z,79.60
2018-12-12T09:34:45.340Z,79.09
2018-12-12T09:35:45.332Z,78.78
2018-12-12T09:36:45.320Z,78.71
2018-12-12T09:37:45.343Z,79.40
2018-12-12T09:38:45.299Z,79.02
2018-12-12T09:39:45.288Z,78.57
2018-12-12T09:40:45.290Z,77.67
2018-12-12T09:41:45.267Z,78.05
2018-12-12T09:42:45.276Z,78.78
2018-12-12T09:43:45.259Z,79.09
2018-12-12T09:44:45.237Z,78.67
2018-12-12T09:45:45.229Z,77.64
2018-12-12T09:46:45.216Z,77.12
2018-12-12T09:47:45.244Z,76.81
2018-12-12T09:48:45.210Z,77.53
2018-12-12T09:49:45.185Z,78.05
2018-12-12T09:50:45.183Z,76.40
2018-12-12T09:51:45.167Z,76.50
2018-12-12T09:52:45.178Z,76.61
2018-12-12T09:53:45.149Z,77.09
2018-12-12T09:54:45.139Z,76.91
2018-12-12T09:55:45.121Z,77.64
2018-12-12T09:56:45.113Z,77.74
2018-12-12T09:57:45.121Z,77.22
2018-12-12T09:58:45.103Z,77.01
2018-12-12T09:59:45.084Z,77.74
2018-12-12T10:00:45.078Z,77.74
2018-12-12T10:01:45.065Z,77.09
2018-12-12T10:02:45.082Z,76.57
2018-12-12T10:03:45.041Z,76.26
2018-12-12T10:04:45.040Z,76.46
2018-12-12T10:05:45.019Z,76.67
2018-12-12T10:06:45.009Z,75.84
2018-12-12T10:07:45.142Z,75.43
2018-12-12T10:08:44.989Z,76.05
2018-12-12T10:09:44.982Z,76.43
2018-12-12T10:10:44.968Z,75.29
2018-12-12T10:11:44.973Z,75.40
2018-12-12T10:12:45.039Z,75.29
2018-12-12T10:13:44.939Z,75.60
2018-12-12T10:14:44.927Z,75.40
2018-12-12T10:15:44.918Z,73.54
2018-12-12T10:16:44.906Z,72.91
2018-12-12T10:17:44.898Z,72.74
2018-12-12T10:18:44.919Z,73.94
2018-12-12T10:19:44.877Z,74.81
2018-12-12T10:20:44.866Z,74.05
2018-12-12T10:21:44.860Z,75.40
2018-12-12T10:22:44.879Z,74.26
2018-12-12T10:23:44.855Z,73.54
2018-12-12T10:24:44.830Z,73.74
2018-12-12T10:25:44.816Z,73.50
2018-12-12T10:26:44.814Z,74.02
2018-12-12T10:27:44.826Z,73.60
2018-12-12T10:28:44.803Z,73.50
2018-12-12T10:29:44.794Z,73.08
2018-12-12T10:30:44.781Z,73.02
2018-12-12T10:31:44.755Z,72.67
2018-12-12T10:32:44.750Z,73.08
2018-12-12T10:33:44.756Z,72.98
2018-12-12T10:34:44.724Z,72.47
2018-12-12T10:35:44.725Z,72.47
2018-12-12T10:36:44.722Z,72.78
2018-12-12T10:37:44.693Z,72.78
2018-12-12T10:38:44.704Z,72.98
2018-12-12T10:39:44.684Z,73.08
2018-12-12T10:40:44.676Z,73.08
2018-12-12T10:41:44.652Z,72.02
2018-12-12T10:42:44.643Z,72.22
2018-12-12T10:43:44.654Z,71.74
2018-12-12T10:44:44.633Z,70.88
2018-12-12T10:45:44.615Z,70.23
2018-12-12T10:46:44.610Z,69.61
2018-12-12T10:47:44.593Z,69.85
2018-12-12T10:48:44.608Z,71.09
2018-12-12T10:49:44.572Z,71.26
2018-12-12T10:50:44.562Z,70.06
2018-12-12T10:51:44.561Z,70.12
2018-12-12T10:52:44.543Z,71.16
2018-12-12T10:53:44.554Z,71.47
2018-12-12T10:54:44.526Z,70.95
2018-12-12T10:55:44.523Z,70.64
2018-12-12T10:56:44.500Z,70.51
2018-12-12T10:57:44.490Z,69.68
2018-12-12T10:58:44.505Z,70.37
2018-12-12T10:59:44.473Z,70.57
2018-12-12T11:00:44.464Z,70.27
2018-12-12T11:01:44.450Z,69.34
2018-12-12T11:02:44.445Z,69.85
2018-12-12T11:03:44.607Z,68.21
2018-12-12T11:04:44.420Z,68.51
2018-12-12T11:05:44.408Z,66.76
2018-12-12T11:06:44.404Z,66.52
2018-12-12T11:07:44.386Z,66.86
2018-12-12T11:08:44.393Z,67.07
2018-12-12T11:09:44.366Z,67.24
2018-12-12T11:10:44.356Z,67.24
2018-12-12T11:11:44.356Z,66.24
2018-12-12T11:12:44.337Z,66.66
2018-12-12T11:13:44.346Z,66.55
2018-12-12T11:14:44.314Z,67.38
2018-12-12T11:15:44.303Z,67.38
2018-12-12T11:16:44.293Z,67.48
2018-12-12T11:17:44.286Z,66.86
2018-12-12T11:18:44.301Z,67.69
2018-12-12T11:19:44.265Z,67.07
2018-12-12T11:20:44.251Z,67.07
2018-12-12T11:21:44.242Z,67.48
2018-12-12T11:22:44.233Z,67.27
2018-12-12T11:23:44.239Z,65.94
2018-12-12T11:24:45.141Z,66.24
2018-12-12T11:25:44.197Z,67.07
2018-12-12T11:26:44.203Z,65.94
2018-12-12T11:27:44.178Z,65.94
2018-12-12T11:28:44.185Z,66.55
2018-12-12T11:29:44.160Z,65.70
2018-12-12T11:30:44.151Z,64.04
2018-12-12T11:31:44.136Z,64.56
2018-12-12T11:32:44.129Z,63.95
2018-12-12T11:33:50.311Z,63.32
2018-12-12T11:34:45.104Z,62.60
2018-12-12T11:35:44.093Z,62.22
2018-12-12T11:36:44.106Z,61.70
2018-12-12T11:37:44.084Z,60.47
2018-12-12T11:38:44.091Z,60.33
2018-12-12T11:39:44.051Z,61.68
2018-12-12T11:40:44.044Z,60.75
2018-12-12T11:41:44.052Z,60.41
2018-12-12T11:42:44.023Z,61.44
2018-12-12T11:43:44.030Z,60.79
2018-12-12T11:44:43.998Z,60.05
2018-12-12T11:45:43.989Z,59.42
2018-12-12T11:46:43.977Z,58.50
2018-12-12T11:47:43.977Z,59.01
2018-12-12T11:48:43.977Z,59.42
2018-12-12T11:49:43.951Z,59.14
2018-12-12T11:50:43.936Z,60.89
2018-12-12T11:51:43.928Z,59.74
2018-12-12T11:52:43.916Z,59.74
2018-12-12T11:53:43.904Z,60.22
2018-12-12T11:54:43.911Z,58.70
2018-12-12T11:55:43.912Z,59.04
2018-12-12T11:56:43.871Z,58.42
2018-12-12T11:57:43.874Z,57.44
2018-12-12T11:58:43.848Z,56.52
2018-12-12T11:59:43.860Z,56.41
2018-12-12T12:00:43.837Z,57.34
2018-12-12T12:01:43.824Z,56.41
2018-12-12T12:02:43.806Z,56.54
2018-12-12T12:03:43.797Z,56.65
2018-12-12T12:04:43.813Z,56.62
2018-12-12T12:05:43.778Z,57.98
2018-12-12T12:06:43.765Z,58.19
2018-12-12T12:07:43.757Z,58.70
2018-12-12T12:08:43.743Z,59.22
2018-12-12T12:09:43.749Z,59.25
2018-12-12T12:10:43.722Z,58.63
2018-12-12T12:11:43.709Z,58.25
2018-12-12T12:12:43.713Z,57.83
2018-12-12T12:13:43.697Z,58.45
2018-12-12T12:14:43.705Z,58.45
2018-12-12T12:15:43.669Z,58.27
2018-12-12T12:16:43.661Z,57.96
2018-12-12T12:17:43.645Z,58.17
2018-12-12T12:18:43.640Z,58.30
2018-12-12T12:19:43.649Z,58.09
2018-12-12T12:20:43.611Z,58.81
2018-12-12T12:21:43.610Z,59.02
2018-12-12T12:22:43.599Z,59.33
2018-12-12T12:23:43.584Z,58.79
2018-12-12T12:24:43.593Z,58.37
2018-12-12T12:25:43.571Z,58.48
2018-12-12T12:26:43.574Z,56.31
2018-12-12T12:27:43.542Z,56.52
2018-12-12T12:28:43.529Z,56.83
2018-12-12T12:29:43.553Z,56.65
2018-12-12T12:30:43.511Z,56.13
2018-12-12T12:31:43.518Z,56.44
2018-12-12T12:32:43.488Z,56.65
2018-12-12T12:33:43.481Z,57.24
2018-12-12T12:34:43.486Z,58.09
2018-12-12T12:35:43.474Z,58.17
2018-12-12T12:36:43.448Z,58.69
2018-12-12T12:37:43.440Z,58.48
2018-12-12T12:38:43.425Z,57.86
2018-12-12T12:39:43.433Z,58.48
2018-12-12T12:40:43.407Z,60.00
2018-12-12T12:41:43.393Z,59.79
2018-12-12T12:42:43.390Z,58.25
2018-12-12T12:43:43.391Z,58.55
2018-12-12T12:44:43.380Z,58.45
2018-12-12T12:45:43.352Z,59.89
2018-12-12T12:46:43.345Z,58.35
2018-12-12T12:47:43.331Z,58.45
2018-12-12T12:48:43.355Z,58.14
2018-12-12T12:49:43.326Z,58.86
2018-12-12T12:50:44.174Z,58.65
2018-12-12T12:51:43.286Z,58.76
2018-12-12T12:52:43.329Z,58.76
2018-12-12T12:53:43.266Z,58.25
2018-12-12T12:54:43.284Z,58.27
2018-12-12T12:55:43.257Z,58.65
2018-12-12T12:56:43.257Z,59.17
2018-12-12T12:57:43.230Z,58.69
2018-12-12T12:58:43.218Z,58.76
2018-12-12T12:59:43.219Z,58.27
2018-12-12T13:00:43.195Z,58.79
2018-12-12T13:01:43.181Z,58.79
2018-12-12T13:02:43.172Z,58.27
2018-12-12T13:03:43.159Z,57.99
2018-12-12T13:04:43.165Z,58.48
2018-12-12T13:05:43.145Z,59.64
2018-12-12T13:06:43.146Z,61.16
2018-12-12T13:07:43.122Z,60.05
2018-12-12T13:08:43.107Z,60.47
2018-12-12T13:09:43.136Z,60.36
2018-12-12T13:10:43.093Z,59.23
2018-12-12T13:11:43.076Z,60.26
2018-12-12T13:12:43.082Z,59.61
2018-12-12T13:13:43.182Z,59.12
2018-12-12T13:14:43.061Z,60.26
2018-12-12T13:15:43.035Z,60.36
2018-12-12T13:16:43.025Z,60.57
2018-12-12T13:17:43.022Z,60.67
2018-12-12T13:18:43.004Z,60.47
2018-12-12T13:19:43.017Z,60.26
2018-12-12T13:20:42.995Z,60.16
2018-12-12T13:21:42.973Z,61.19
2018-12-12T13:22:43.125Z,60.16
2018-12-12T13:23:42.951Z,59.72
2018-12-12T13:24:42.958Z,60.54
2018-12-12T13:25:42.936Z,60.05
2018-12-12T13:26:42.923Z,60.33
2018-12-12T13:27:43.117Z,60.02
2018-12-12T13:28:42.907Z,59.20
2018-12-12T13:29:42.915Z,58.99
2018-12-12T13:30:42.880Z,58.48
2018-12-12T13:31:42.901Z,57.99
2018-12-12T13:32:42.874Z,58.48
2018-12-12T13:33:42.852Z,59.53
2018-12-12T13:34:42.855Z,59.02
2018-12-12T13:35:42.826Z,60.02
2018-12-12T13:36:42.828Z,59.82
2018-12-12T13:37:42.808Z,60.13
2018-12-12T13:38:42.801Z,58.92
2018-12-12T13:39:42.791Z,60.16
2018-12-12T13:40:42.797Z,60.33
2018-12-12T13:41:42.773Z,61.68
2018-12-12T13:42:42.755Z,62.12
2018-12-12T13:43:42.743Z,60.98
2018-12-12T13:44:42.805Z,58.92
2018-12-12T13:45:42.741Z,57.99
2018-12-12T13:46:42.873Z,58.30
2018-12-12T13:47:42.722Z,58.30
2018-12-12T13:48:42.692Z,58.92
2018-12-12T13:49:42.683Z,58.40
2018-12-12T13:50:42.705Z,57.99
2018-12-12T13:51:42.670Z,57.81
2018-12-12T13:52:42.655Z,57.70
2018-12-12T13:53:42.649Z,57.91
2018-12-12T13:54:42.728Z,58.84
2018-12-12T13:55:42.640Z,58.74
2018-12-12T13:56:42.748Z,58.74
2018-12-12T13:57:42.629Z,58.64
2018-12-12T13:58:42.631Z,58.12
2018-12-12T13:59:42.633Z,58.84
2018-12-12T14:00:42.588Z,58.64
2018-12-12T14:01:42.569Z,59.05
2018-12-12T14:02:42.562Z,58.43
2018-12-12T14:03:42.555Z,58.64
2018-12-12T14:04:42.532Z,58.64
2018-12-12T14:05:42.540Z,59.25
2018-12-12T14:06:42.511Z,58.53
2018-12-12T14:07:42.499Z,59.25
2018-12-12T14:08:42.499Z,59.28
2018-12-12T14:09:42.489Z,59.25
2018-12-12T14:10:42.495Z,58.94
2018-12-12T14:11:42.457Z,58.53
2018-12-12T14:12:42.448Z,59.15
2018-12-12T14:13:42.441Z,58.94
2018-12-12T14:14:42.431Z,58.43
2018-12-12T14:15:42.434Z,58.84
2018-12-12T14:16:42.409Z,58.94
2018-12-12T14:17:42.407Z,59.36
2018-12-12T14:18:42.386Z,59.56
2018-12-12T14:19:42.373Z,59.15
2018-12-12T14:20:42.381Z,58.71
2018-12-12T14:21:42.626Z,59.02
2018-12-12T14:22:42.366Z,59.02
2018-12-12T14:23:42.332Z,60.16
2018-12-12T14:24:42.322Z,61.29
2018-12-12T14:25:42.343Z,60.57
2018-12-12T14:26:42.307Z,60.88
2018-12-12T14:27:42.299Z,61.40
2018-12-12T14:28:42.310Z,60.60
2018-12-12T14:29:42.274Z,60.67
2018-12-12T14:30:42.452Z,60.98
2018-12-12T14:31:42.251Z,61.94
2018-12-12T14:32:42.248Z,62.35
2018-12-12T14:33:42.241Z,62.46
2018-12-12T14:34:42.221Z,62.46
2018-12-12T14:35:42.226Z,62.25
2018-12-12T14:36:42.207Z,61.63
2018-12-12T14:37:42.189Z,61.22
2018-12-12T14:38:42.179Z,61.52
2018-12-12T14:39:42.170Z,62.35
2018-12-12T14:40:42.176Z,62.25
2018-12-12T14:41:42.144Z,61.63
2018-12-12T14:42:42.135Z,61.66
2018-12-12T14:43:42.128Z,61.04
2018-12-12T14:44:42.128Z,61.04
2018-12-12T14:45:42.137Z,61.01
2018-12-12T14:46:42.094Z,61.66
2018-12-12T14:47:42.086Z,61.14
2018-12-12T14:48:42.091Z,61.52
2018-12-12T14:49:42.064Z,61.94
2018-12-12T14:50:42.073Z,61.35
2018-12-12T14:51:42.045Z,61.58
2018-12-12T14:52:42.038Z,61.76
2018-12-12T14:53:42.031Z,62.07
2018-12-12T14:54:42.015Z,62.38
2018-12-12T14:55:42.063Z,62.30
2018-12-12T14:56:41.994Z,62.82
2018-12-12T14:57:41.982Z,62.93
2018-12-12T14:58:41.973Z,63.85
2018-12-12T14:59:42.019Z,63.75
2018-12-12T15:00:41.970Z,63.65
2018-12-12T15:01:41.945Z,63.75
2018-12-12T15:02:41.931Z,64.06
2018-12-12T15:03:41.940Z,64.20
2018-12-12T15:04:41.918Z,64.68
2018-12-12T15:05:41.919Z,64.68
2018-12-12T15:06:41.891Z,64.51
2018-12-12T15:07:41.889Z,64.20
2018-12-12T15:08:41.870Z,64.30
2018-12-12T15:09:41.866Z,65.75
2018-12-12T15:10:41.868Z,65.85
2018-12-12T15:11:41.840Z,65.95
2018-12-12T15:12:41.845Z,64.84
2018-12-12T15:13:41.818Z,65.67
2018-12-12T15:14:41.807Z,66.09
2018-12-12T15:15:41.821Z,66.09
2018-12-12T15:16:41.789Z,65.57
2018-12-12T15:17:41.776Z,65.99
2018-12-12T15:18:41.784Z,65.67
2018-12-12T15:19:41.757Z,65.99
2018-12-12T15:20:41.775Z,65.88
2018-12-12T15:21:41.734Z,66.12
2018-12-12T15:22:41.729Z,66.42
2018-12-12T15:23:41.713Z,66.74
2018-12-12T15:24:41.707Z,67.15
2018-12-12T15:25:41.713Z,67.05
2018-12-12T15:26:41.682Z,67.05
2018-12-12T15:27:41.671Z,67.67
2018-12-12T15:28:41.665Z,67.46
2018-12-12T15:29:41.659Z,67.25
2018-12-12T15:30:41.640Z,67.15
2018-12-12T15:31:41.659Z,67.46
2018-12-12T15:32:41.622Z,67.36
2018-12-12T15:33:41.608Z,67.57
2018-12-12T15:34:42.461Z,67.67
2018-12-12T15:35:41.595Z,67.25
2018-12-12T15:36:41.604Z,67.67
2018-12-12T15:37:41.570Z,68.53
2018-12-12T15:38:41.560Z,68.01
2018-12-12T15:39:41.604Z,68.94
2018-12-12T15:40:41.535Z,68.22
2018-12-12T15:41:41.564Z,68.43
2018-12-12T15:42:41.523Z,68.43
2018-12-12T15:43:41.511Z,68.94
2018-12-12T15:44:41.495Z,68.94
2018-12-12T15:45:41.485Z,68.74
2018-12-12T15:46:41.492Z,70.08
2018-12-12T15:47:41.463Z,69.70
2018-12-12T15:48:41.455Z,68.98
2018-12-12T15:49:41.446Z,69.60
2018-12-12T15:50:41.432Z,69.29
2018-12-12T15:51:41.442Z,69.39
2018-12-12T15:52:41.411Z,69.53
2018-12-12T15:53:41.400Z,70.97
2018-12-12T15:54:41.392Z,70.36
2018-12-12T15:55:41.389Z,70.87
2018-12-12T15:56:41.388Z,70.04
2018-12-12T15:57:41.357Z,70.36
2018-12-12T15:58:41.359Z,69.63
2018-12-12T15:59:41.368Z,69.63
2018-12-12T16:00:41.330Z,69.94
2018-12-12T16:01:41.346Z,68.28
2018-12-12T16:02:41.306Z,69.63
2018-12-12T16:03:41.297Z,69.94
2018-12-12T16:04:41.288Z,69.84
2018-12-12T16:05:41.301Z,69.63
2018-12-12T16:06:41.287Z,69.84
2018-12-12T16:07:41.270Z,69.63
2018-12-12T16:08:41.249Z,69.63
2018-12-12T16:09:41.247Z,69.63
2018-12-12T16:10:41.233Z,69.53
2018-12-12T16:11:41.235Z,70.04
2018-12-12T16:12:41.201Z,70.28
2018-12-12T16:13:41.191Z,70.70
2018-12-12T16:14:41.189Z,70.18
2018-12-12T16:15:41.176Z,69.66
2018-12-12T16:16:41.179Z,70.80
2018-12-12T16:17:41.150Z,70.18
2018-12-12T16:18:41.152Z,70.49
2018-12-12T16:19:41.129Z,70.39
2018-12-12T16:20:41.175Z,70.39
2018-12-12T16:21:41.128Z,69.97
2018-12-12T16:22:41.103Z,70.18
2018-12-12T16:23:41.086Z,70.39
2018-12-12T16:24:41.098Z,71.01
2018-12-12T16:25:41.070Z,71.42
2018-12-12T16:26:41.079Z,70.49
2018-12-12T16:27:41.045Z,70.18
2018-12-12T16:28:41.032Z,69.76
2018-12-12T16:29:41.026Z,70.59
2018-12-12T16:30:41.022Z,70.90
2018-12-12T16:31:41.025Z,71.01
2018-12-12T16:32:40.992Z,70.90
2018-12-12T16:33:40.979Z,70.52
2018-12-12T16:34:40.969Z,70.80
2018-12-12T16:35:40.961Z,70.28
2018-12-12T16:36:40.970Z,70.21
2018-12-12T16:37:40.966Z,71.04
2018-12-12T16:38:40.929Z,70.10
2018-12-12T16:39:40.924Z,70.94
2018-12-12T16:40:40.911Z,71.35
2018-12-12T16:41:40.917Z,70.83
2018-12-12T16:42:40.895Z,70.10
2018-12-12T16:43:40.874Z,70.73
2018-12-12T16:44:40.866Z,70.42
2018-12-12T16:45:40.861Z,70.10
2018-12-12T16:46:40.916Z,70.83
2018-12-12T16:47:40.835Z,70.83
2018-12-12T16:48:40.832Z,70.83
2018-12-12T16:49:40.810Z,70.62
2018-12-12T16:50:40.802Z,70.83
2018-12-12T16:51:40.815Z,70.21
2018-12-12T16:52:40.780Z,71.04
2018-12-12T16:53:40.973Z,70.94
2018-12-12T16:54:40.780Z,71.39
2018-12-12T16:55:40.752Z,71.28
2018-12-12T16:56:40.757Z,72.32
2018-12-12T16:57:40.731Z,71.70
2018-12-12T16:58:40.719Z,71.39
2018-12-12T16:59:40.726Z,71.80
2018-12-12T17:00:40.709Z,71.59
2018-12-12T17:01:40.719Z,71.28
2018-12-12T17:02:40.673Z,71.91
2018-12-12T17:03:40.668Z,71.39
2018-12-12T17:04:40.656Z,72.32
2018-12-12T17:05:40.649Z,72.63
2018-12-12T17:06:40.651Z,72.53
2018-12-12T17:07:40.622Z,71.91
2018-12-12T17:08:40.620Z,72.22
2018-12-12T17:09:40.603Z,72.22
2018-12-12T17:10:40.590Z,72.42
2018-12-12T17:11:40.611Z,72.74
2018-12-12T17:12:40.573Z,72.42
2018-12-12T17:13:40.558Z,72.42
2018-12-12T17:14:40.560Z,72.11
2018-12-12T17:15:40.588Z,72.77
2018-12-12T17:16:40.554Z,72.42
2018-12-12T17:17:40.530Z,72.04
2018-12-12T17:18:40.544Z,72.45
2018-12-12T17:19:40.508Z,72.25
2018-12-12T17:20:40.490Z,72.45
2018-12-12T17:21:40.475Z,72.66
2018-12-12T17:22:40.481Z,72.87
2018-12-12T17:23:40.463Z,73.28
2018-12-12T17:24:40.446Z,73.08
2018-12-12T17:25:40.432Z,73.18
2018-12-12T17:26:40.435Z,73.18
2018-12-12T17:27:40.454Z,72.56
2018-12-12T17:28:40.405Z,72.42
2018-12-12T17:29:40.407Z,72.35
2018-12-12T17:30:40.382Z,72.32
2018-12-12T17:31:40.382Z,71.91
2018-12-12T17:32:40.450Z,72.22
2018-12-12T17:33:40.357Z,72.74
2018-12-12T17:34:40.336Z,72.35
2018-12-12T17:35:40.326Z,72.66
2018-12-12T17:36:40.323Z,72.84
2018-12-12T17:37:40.328Z,72.94
2018-12-12T17:38:40.307Z,72.84
2018-12-12T17:39:40.287Z,72.74
2018-12-12T17:40:40.275Z,72.53
2018-12-12T17:41:40.268Z,72.42
2018-12-12T17:42:40.290Z,72.74
2018-12-12T17:43:40.256Z,72.74
2018-12-12T17:44:40.234Z,72.53
2018-12-12T17:45:40.277Z,72.63
2018-12-12T17:46:40.218Z,73.11
2018-12-12T17:47:40.219Z,72.11
2018-12-12T17:48:40.207Z,71.39
2018-12-12T17:49:40.185Z,71.70
2018-12-12T17:50:40.172Z,72.32
2018-12-12T17:51:40.164Z,72.28
2018-12-12T17:52:40.166Z,71.87
2018-12-12T17:53:40.137Z,72.74
2018-12-12T17:54:40.141Z,72.18
2018-12-12T17:55:40.122Z,71.04
2018-12-12T17:56:40.106Z,71.77
2018-12-12T17:57:40.114Z,72.01
2018-12-12T17:58:40.086Z,72.42
2018-12-12T17:59:40.075Z,73.25
2018-12-12T18:00:40.071Z,72.42
2018-12-12T18:01:40.057Z,72.22
2018-12-12T18:02:40.065Z,72.63
2018-12-12T18:03:40.036Z,72.01
2018-12-12T18:04:40.023Z,72.01
2018-12-12T18:05:40.050Z,72.32
2018-12-12T18:06:40.002Z,72.63
2018-12-12T18:07:40.029Z,73.15
2018-12-12T18:08:39.982Z,73.15
2018-12-12T18:09:39.999Z,72.97
2018-12-12T18:10:39.965Z,73.15
2018-12-12T18:11:39.961Z,73.28
2018-12-12T18:12:39.956Z,73.28
2018-12-12T18:13:39.933Z,73.28
2018-12-12T18:14:39.919Z,73.28
2018-12-12T18:15:39.908Z,73.00
2018-12-12T18:16:39.972Z,73.60
2018-12-12T18:17:39.908Z,74.05
2018-12-12T18:18:39.876Z,74.36
2018-12-12T18:19:39.870Z,74.57
2018-12-12T18:20:39.861Z,73.97
2018-12-12T18:21:39.843Z,74.39
2018-12-12T18:22:39.853Z,75.22
2018-12-12T18:23:39.830Z,75.43
2018-12-12T18:24:39.816Z,74.80
2018-12-12T18:25:39.819Z,74.70
2018-12-12T18:26:39.791Z,74.29
2018-12-12T18:27:39.813Z,73.66
2018-12-12T18:28:39.771Z,74.18
2018-12-12T18:29:39.764Z,74.18
2018-12-12T18:30:39.755Z,74.39
2018-12-12T18:31:39.738Z,74.08
2018-12-12T18:32:39.754Z,74.08
2018-12-12T18:33:39.715Z,73.97
2018-12-12T18:34:39.706Z,73.97
2018-12-12T18:35:39.696Z,73.97
2018-12-12T18:36:39.694Z,74.39
2018-12-12T18:37:39.695Z,73.66
2018-12-12T18:38:39.693Z,73.97
2018-12-12T18:39:39.655Z,73.87
2018-12-12T18:40:39.645Z,73.97
2018-12-12T18:41:39.639Z,73.97
2018-12-12T18:42:39.641Z,73.87
2018-12-12T18:43:39.636Z,74.22
2018-12-12T18:44:39.619Z,74.43
2018-12-12T18:45:39.590Z,74.95
2018-12-12T18:46:39.582Z,75.67
2018-12-12T18:47:39.676Z,74.95
2018-12-12T18:48:39.557Z,74.63
2018-12-12T18:49:39.548Z,74.74
2018-12-12T18:50:39.562Z,74.84
2018-12-12T18:51:39.530Z,75.19
2018-12-12T18:52:39.554Z,75.60
2018-12-12T18:53:39.516Z,75.29
2018-12-12T18:54:39.495Z,76.23
2018-12-12T18:55:39.497Z,76.12
2018-12-12T18:56:39.532Z,75.81
2018-12-12T18:57:39.495Z,75.81
2018-12-12T18:58:39.454Z,75.29
2018-12-12T18:59:39.473Z,75.92
2018-12-12T19:00:39.434Z,76.02
2018-12-12T19:01:39.450Z,76.54
2018-12-12T19:02:39.470Z,77.37
2018-12-12T19:03:39.405Z,76.06
2018-12-12T19:04:39.415Z,76.68
2018-12-12T19:05:39.401Z,76.33
2018-12-12T19:06:39.373Z,76.95
2018-12-12T19:07:39.434Z,76.43
2018-12-12T19:08:39.394Z,77.20
2018-12-12T19:09:39.341Z,76.57
2018-12-12T19:10:39.382Z,76.57
2018-12-12T19:11:44.385Z,76.47
2018-12-12T19:12:40.325Z,76.47
2018-12-12T19:13:39.298Z,76.06
2018-12-12T19:14:39.288Z,76.06
2018-12-12T19:15:39.277Z,76.16
2018-12-12T19:16:39.273Z,76.57
2018-12-12T19:17:39.565Z,77.09
2018-12-12T19:18:39.242Z,77.20
2018-12-12T19:19:39.259Z,76.92
2018-12-12T19:20:39.227Z,77.09